sensor_id;sensor_type;location;lat;lon;timestamp;pressure;altitude;pressure_sealevel;temperature;humidity
7109;BME280;29079;41.930;25.558;2023-03-03T00:01:11;99913.81;;;4.53;100.00
7109;BME280;29079;41.930;25.558;2023-03-03T00:03:44;99911.84;;;4.57;100.00
7109;BME280;29079;41.930;25.558;2023-03-03T00:06:18;99915.09;;;4.46;100.00
7109;BME280;29079;41.930;25.558;2023-03-03T00:08:52;99892.34;;;4.44;100.00
7109;BME280;29079;41.930;25.558;2023-03-03T00:11:26;99899.91;;;4.50;100.00
7109;BME280;29079;41.930;25.558;2023-03-03T00:13:59;99903.59;;;4.47;100.00
7109;BME280;29079;41.930;25.558;2023-03-03T00:16:36;99901.81;;;4.48;100.00
7109;BME280;29079;41.930;25.558;2023-03-03T00:19:11;99890.53;;;4.44;100.00
7109;BME280;29079;41.930;25.558;2023-03-03T00:21:47;99891.78;;;4.39;100.00
7109;BME280;29079;41.930;25.558;2023-03-03T00:24:21;99888.94;;;4.42;100.00
7109;BME280;29079;41.930;25.558;2023-03-03T00:26:55;99882.88;;;4.40;100.00
7109;BME280;29079;41.930;25.558;2023-03-03T00:29:29;99881.03;;;4.42;100.00
7109;BME280;29079;41.930;25.558;2023-03-03T00:32:17;99881.19;;;4.39;100.00
7109;BME280;29079;41.930;25.558;2023-03-03T00:34:53;99875.22;;;4.35;100.00
7109;BME280;29079;41.930;25.558;2023-03-03T00:37:28;99868.56;;;4.44;100.00
7109;BME280;29079;41.930;25.558;2023-03-03T00:40:20;99867.22;;;4.36;100.00
7109;BME280;29079;41.930;25.558;2023-03-03T00:42:55;99863.72;;;4.36;100.00
7109;BME280;29079;41.930;25.558;2023-03-03T00:45:30;99865.16;;;4.42;100.00
7109;BME280;29079;41.930;25.558;2023-03-03T00:48:10;99868.47;;;4.45;100.00
7109;BME280;29079;41.930;25.558;2023-03-03T00:50:48;99870.44;;;4.42;100.00
7109;BME280;29079;41.930;25.558;2023-03-03T00:53:22;99867.53;;;4.46;100.00
7109;BME280;29079;41.930;25.558;2023-03-03T00:55:56;99862.44;;;4.43;100.00
7109;BME280;29079;41.930;25.558;2023-03-03T00:58:29;99856.97;;;4.46;100.00
7109;BME280;29079;41.930;25.558;2023-03-03T01:01:02;99849.13;;;4.45;100.00
7109;BME280;29079;41.930;25.558;2023-03-03T01:03:37;99855.63;;;4.39;100.00
7109;BME280;29079;41.930;25.558;2023-03-03T01:06:10;99855.34;;;4.44;100.00
7109;BME280;29079;41.930;25.558;2023-03-03T01:08:43;99857.81;;;4.47;100.00
7109;BME280;29079;41.930;25.558;2023-03-03T01:11:18;99856.88;;;4.48;100.00
7109;BME280;29079;41.930;25.558;2023-03-03T01:13:54;99859.00;;;4.41;100.00
7109;BME280;29079;41.930;25.558;2023-03-03T01:16:28;99847.78;;;4.38;100.00
7109;BME280;29079;41.930;25.558;2023-03-03T01:19:03;99847.69;;;4.39;100.00
7109;BME280;29079;41.930;25.558;2023-03-03T01:21:36;99853.06;;;4.38;100.00
7109;BME280;29079;41.930;25.558;2023-03-03T01:24:11;99854.41;;;4.45;100.00
7109;BME280;29079;41.930;25.558;2023-03-03T01:26:44;99852.19;;;4.37;100.00
7109;BME280;29079;41.930;25.558;2023-03-03T01:29:17;99850.34;;;4.39;100.00
7109;BME280;29079;41.930;25.558;2023-03-03T01:31:50;99852.13;;;4.39;100.00
7109;BME280;29079;41.930;25.558;2023-03-03T01:34:25;99849.72;;;4.34;100.00
7109;BME280;29079;41.930;25.558;2023-03-03T01:36:58;99848.44;;;4.41;100.00
7109;BME280;29079;41.930;25.558;2023-03-03T01:39:32;99842.03;;;4.45;100.00
7109;BME280;29079;41.930;25.558;2023-03-03T01:42:06;99835.91;;;4.45;100.00
7109;BME280;29079;41.930;25.558;2023-03-03T01:44:39;99842.13;;;4.44;100.00
7109;BME280;29079;41.930;25.558;2023-03-03T01:47:13;99840.88;;;4.35;100.00
7109;BME280;29079;41.930;25.558;2023-03-03T01:49:49;99836.28;;;4.39;100.00
7109;BME280;29079;41.930;25.558;2023-03-03T01:52:25;99834.75;;;4.34;100.00
7109;BME280;29079;41.930;25.558;2023-03-03T01:55:00;99841.28;;;4.43;100.00
7109;BME280;29079;41.930;25.558;2023-03-03T01:57:35;99843.34;;;4.38;100.00
7109;BME280;29079;41.930;25.558;2023-03-03T02:00:10;99851.59;;;4.48;100.00
7109;BME280;29079;41.930;25.558;2023-03-03T02:02:44;99849.13;;;4.45;100.00
7109;BME280;29079;41.930;25.558;2023-03-03T02:05:19;99844.78;;;4.44;100.00
7109;BME280;29079;41.930;25.558;2023-03-03T02:07:52;99856.97;;;4.46;100.00
7109;BME280;29079;41.930;25.558;2023-03-03T02:10:25;99852.25;;;4.51;100.00
7109;BME280;29079;41.930;25.558;2023-03-03T02:13:00;99852.50;;;4.47;100.00
7109;BME280;29079;41.930;25.558;2023-03-03T02:15:34;99844.03;;;4.42;100.00
7109;BME280;29079;41.930;25.558;2023-03-03T02:18:08;99845.97;;;4.38;100.00
7109;BME280;29079;41.930;25.558;2023-03-03T02:20:50;99850.06;;;4.44;100.00
7109;BME280;29079;41.930;25.558;2023-03-03T02:23:26;99849.03;;;4.46;100.00
7109;BME280;29079;41.930;25.558;2023-03-03T02:26:06;99852.59;;;4.45;100.00
7109;BME280;29079;41.930;25.558;2023-03-03T02:28:40;99846.13;;;4.51;100.00
7109;BME280;29079;41.930;25.558;2023-03-03T02:31:15;99834.88;;;4.47;100.00
7109;BME280;29079;41.930;25.558;2023-03-03T02:33:49;99836.66;;;4.47;100.00
7109;BME280;29079;41.930;25.558;2023-03-03T02:36:23;99835.81;;;4.46;100.00
7109;BME280;29079;41.930;25.558;2023-03-03T02:38:58;99841.28;;;4.43;100.00
7109;BME280;29079;41.930;25.558;2023-03-03T02:41:37;99838.91;;;4.39;100.00
7109;BME280;29079;41.930;25.558;2023-03-03T02:44:11;99835.91;;;4.45;100.00
7109;BME280;29079;41.930;25.558;2023-03-03T02:46:47;99837.25;;;4.52;100.00
7109;BME280;29079;41.930;25.558;2023-03-03T02:49:22;99837.03;;;4.41;100.00
7109;BME280;29079;41.930;25.558;2023-03-03T02:51:55;99835.31;;;4.40;100.00
7109;BME280;29079;41.930;25.558;2023-03-03T02:54:29;99831.06;;;4.37;100.00
7109;BME280;29079;41.930;25.558;2023-03-03T02:57:04;99833.09;;;4.48;100.00
7109;BME280;29079;41.930;25.558;2023-03-03T02:59:37;99829.84;;;4.43;100.00
7109;BME280;29079;41.930;25.558;2023-03-03T03:02:10;99831.06;;;4.37;100.00
7109;BME280;29079;41.930;25.558;2023-03-03T03:04:44;99830.22;;;4.36;100.00
7109;BME280;29079;41.930;25.558;2023-03-03T03:07:17;99825.53;;;4.42;100.00
7109;BME280;29079;41.930;25.558;2023-03-03T03:09:50;99819.91;;;4.32;100.00
7109;BME280;29079;41.930;25.558;2023-03-03T03:12:26;99825.94;;;4.34;100.00
7109;BME280;29079;41.930;25.558;2023-03-03T03:15:00;99827.25;;;4.27;100.00
7109;BME280;29079;41.930;25.558;2023-03-03T03:17:35;99828.88;;;4.29;100.00
7109;BME280;29079;41.930;25.558;2023-03-03T03:20:09;99823.41;;;4.32;100.00
7109;BME280;29079;41.930;25.558;2023-03-03T03:22:42;99823.59;;;4.29;100.00
7109;BME280;29079;41.930;25.558;2023-03-03T03:25:16;99820.09;;;4.29;100.00
7109;BME280;29079;41.930;25.558;2023-03-03T03:27:50;99819.50;;;4.24;100.00
7109;BME280;29079;41.930;25.558;2023-03-03T03:30:23;99824.75;;;4.40;100.00
7109;BME280;29079;41.930;25.558;2023-03-03T03:32:56;99823.59;;;4.29;100.00
7109;BME280;29079;41.930;25.558;2023-03-03T03:35:30;99819.41;;;4.25;100.00
7109;BME280;29079;41.930;25.558;2023-03-03T03:38:04;99817.72;;;4.24;100.00
7109;BME280;29079;41.930;25.558;2023-03-03T03:40:38;99811.25;;;4.30;100.00
7109;BME280;29079;41.930;25.558;2023-03-03T03:43:12;99815.56;;;4.31;100.00
7109;BME280;29079;41.930;25.558;2023-03-03T03:45:45;99809.44;;;4.30;100.00
7109;BME280;29079;41.930;25.558;2023-03-03T03:48:18;99812.16;;;4.29;100.00
7109;BME280;29079;41.930;25.558;2023-03-03T03:50:52;99814.44;;;4.35;100.00
7109;BME280;29079;41.930;25.558;2023-03-03T03:53:25;99813.69;;;4.33;100.00
7109;BME280;29079;41.930;25.558;2023-03-03T03:55:58;99811.16;;;4.31;100.00
7109;BME280;29079;41.930;25.558;2023-03-03T03:58:32;99813.78;;;4.31;100.00
7109;BME280;29079;41.930;25.558;2023-03-03T04:01:06;99817.19;;;4.33;100.00
7109;BME280;29079;41.930;25.558;2023-03-03T04:03:39;99815.38;;;4.34;100.00
7109;BME280;29079;41.930;25.558;2023-03-03T04:06:12;99812.50;;;4.39;100.00
7109;BME280;29079;41.930;25.558;2023-03-03T04:08:45;99807.72;;;4.29;100.00
7109;BME280;29079;41.930;25.558;2023-03-03T04:11:18;99811.47;;;4.25;100.00
7109;BME280;29079;41.930;25.558;2023-03-03T04:13:54;99808.94;;;4.24;100.00
7109;BME280;29079;41.930;25.558;2023-03-03T04:16:27;99806.09;;;4.27;100.00
7109;BME280;29079;41.930;25.558;2023-03-03T04:19:00;99806.88;;;4.29;100.00
7109;BME280;29079;41.930;25.558;2023-03-03T04:21:33;99804.53;;;4.24;100.00
7109;BME280;29079;41.930;25.558;2023-03-03T04:24:07;99816.13;;;4.22;100.00
7109;BME280;29079;41.930;25.558;2023-03-03T04:26:40;99815.31;;;4.19;100.00
7109;BME280;29079;41.930;25.558;2023-03-03T04:29:15;99806.88;;;4.29;100.00
7109;BME280;29079;41.930;25.558;2023-03-03T04:31:48;99803.47;;;4.27;100.00
7109;BME280;29079;41.930;25.558;2023-03-03T04:34:21;99810.75;;;4.23;100.00
7109;BME280;29079;41.930;25.558;2023-03-03T04:36:54;99811.66;;;4.22;100.00
7109;BME280;29079;41.930;25.558;2023-03-03T04:39:28;99798.09;;;4.28;100.00
7109;BME280;29079;41.930;25.558;2023-03-03T04:42:01;99801.59;;;4.29;100.00
7109;BME280;29079;41.930;25.558;2023-03-03T04:44:36;99810.66;;;4.25;100.00
7109;BME280;29079;41.930;25.558;2023-03-03T04:47:09;99804.34;;;4.27;100.00
7109;BME280;29079;41.930;25.558;2023-03-03T04:49:42;99808.00;;;4.25;100.00
7109;BME280;29079;41.930;25.558;2023-03-03T04:52:15;99802.81;;;4.23;100.00
7109;BME280;29079;41.930;25.558;2023-03-03T04:54:49;99796.59;;;4.24;100.00
7109;BME280;29079;41.930;25.558;2023-03-03T04:57:22;99794.69;;;4.26;100.00
7109;BME280;29079;41.930;25.558;2023-03-03T04:59:56;99794.19;;;4.19;100.00
7109;BME280;29079;41.930;25.558;2023-03-03T05:02:29;99809.97;;;4.21;100.00
7109;BME280;29079;41.930;25.558;2023-03-03T05:05:02;99811.94;;;4.17;100.00
7109;BME280;29079;41.930;25.558;2023-03-03T05:07:36;99813.38;;;4.23;100.00
7109;BME280;29079;41.930;25.558;2023-03-03T05:10:09;99819.50;;;4.24;100.00
7109;BME280;29079;41.930;25.558;2023-03-03T05:12:43;99818.66;;;4.23;100.00
7109;BME280;29079;41.930;25.558;2023-03-03T05:15:18;99814.22;;;4.24;100.00
7109;BME280;29079;41.930;25.558;2023-03-03T05:17:52;99809.03;;;4.22;100.00
7109;BME280;29079;41.930;25.558;2023-03-03T05:20:27;99814.72;;;4.30;100.00
7109;BME280;29079;41.930;25.558;2023-03-03T05:23:00;99810.56;;;4.26;100.00
7109;BME280;29079;41.930;25.558;2023-03-03T05:25:33;99810.75;;;4.23;100.00
7109;BME280;29079;41.930;25.558;2023-03-03T05:28:07;99816.03;;;4.23;100.00
7109;BME280;29079;41.930;25.558;2023-03-03T05:30:41;99820.28;;;4.26;100.00
7109;BME280;29079;41.930;25.558;2023-03-03T05:33:15;99821.31;;;4.23;100.00
7109;BME280;29079;41.930;25.558;2023-03-03T05:35:52;99813.00;;;4.29;100.00
7109;BME280;29079;41.930;25.558;2023-03-03T05:38:25;99816.59;;;4.28;100.00
7109;BME280;29079;41.930;25.558;2023-03-03T05:40:58;99814.72;;;4.30;100.00
7109;BME280;29079;41.930;25.558;2023-03-03T05:43:31;99820.84;;;4.31;100.00
7109;BME280;29079;41.930;25.558;2023-03-03T05:46:06;99817.72;;;4.24;100.00
7109;BME280;29079;41.930;25.558;2023-03-03T05:48:39;99811.41;;;4.27;100.00
7109;BME280;29079;41.930;25.558;2023-03-03T05:51:12;99816.59;;;4.28;100.00
7109;BME280;29079;41.930;25.558;2023-03-03T05:53:45;99820.38;;;4.24;100.00
7109;BME280;29079;41.930;25.558;2023-03-03T05:56:18;99822.66;;;4.30;100.00
7109;BME280;29079;41.930;25.558;2023-03-03T05:58:52;99819.31;;;4.27;100.00
7109;BME280;29079;41.930;25.558;2023-03-03T06:01:27;99828.38;;;4.23;100.00
7109;BME280;29079;41.930;25.558;2023-03-03T06:04:00;99816.53;;;4.30;100.00
7109;BME280;29079;41.930;25.558;2023-03-03T06:06:33;99813.19;;;4.26;100.00
7109;BME280;29079;41.930;25.558;2023-03-03T06:09:06;99817.56;;;4.27;100.00
7109;BME280;29079;41.930;25.558;2023-03-03T06:11:40;99823.84;;;4.25;100.00
7109;BME280;29079;41.930;25.558;2023-03-03T06:14:13;99830.56;;;4.30;100.00
7109;BME280;29079;41.930;25.558;2023-03-03T06:16:48;99824.59;;;4.27;100.00
7109;BME280;29079;41.930;25.558;2023-03-03T06:19:22;99828.88;;;4.29;100.00
7109;BME280;29079;41.930;25.558;2023-03-03T06:21:55;99823.59;;;4.29;100.00
7109;BME280;29079;41.930;25.558;2023-03-03T06:24:31;99828.50;;;4.35;100.00
7109;BME280;29079;41.930;25.558;2023-03-03T06:27:04;99827.00;;;4.31;100.00
7109;BME280;29079;41.930;25.558;2023-03-03T06:29:37;99827.66;;;4.35;100.00
7109;BME280;29079;41.930;25.558;2023-03-03T06:32:12;99822.09;;;4.40;100.00
7109;BME280;29079;41.930;25.558;2023-03-03T06:34:45;99819.56;;;4.38;100.00
7109;BME280;29079;41.930;25.558;2023-03-03T06:37:18;99827.47;;;4.38;100.00
7109;BME280;29079;41.930;25.558;2023-03-03T06:39:51;99824.84;;;4.38;100.00
7109;BME280;29079;41.930;25.558;2023-03-03T06:42:24;99823.63;;;4.44;100.00
7109;BME280;29079;41.930;25.558;2023-03-03T06:44:57;99827.97;;;4.45;100.00
7109;BME280;29079;41.930;25.558;2023-03-03T06:47:33;99825.53;;;4.42;100.00
7109;BME280;29079;41.930;25.558;2023-03-03T06:50:06;99823.22;;;4.35;100.00
7109;BME280;29079;41.930;25.558;2023-03-03T06:52:39;99820.19;;;4.27;100.00
7109;BME280;29079;41.930;25.558;2023-03-03T06:55:12;99822.00;;;4.41;100.00
7109;BME280;29079;41.930;25.558;2023-03-03T06:57:49;99821.00;;;4.44;100.00
7109;BME280;29079;41.930;25.558;2023-03-03T07:00:23;99816.44;;;4.46;100.00
7109;BME280;29079;41.930;25.558;2023-03-03T07:03:00;99807.97;;;4.41;100.00
7109;BME280;29079;41.930;25.558;2023-03-03T07:05:34;99818.16;;;4.47;100.00
7109;BME280;29079;41.930;25.558;2023-03-03T07:08:09;99825.25;;;4.46;100.00
7109;BME280;29079;41.930;25.558;2023-03-03T07:10:45;99821.81;;;4.44;100.00
7109;BME280;29079;41.930;25.558;2023-03-03T07:13:20;99819.59;;;4.52;100.00
7109;BME280;29079;41.930;25.558;2023-03-03T07:15:54;99815.53;;;4.47;100.00
7109;BME280;29079;41.930;25.558;2023-03-03T07:18:32;99733.84;;;3.97;100.00
7109;BME280;29079;41.930;25.558;2023-03-03T07:21:14;99813.56;;;4.50;100.00
7109;BME280;29079;41.930;25.558;2023-03-03T07:23:48;99812.28;;;4.72;100.00
7109;BME280;29079;41.930;25.558;2023-03-03T07:26:24;99815.88;;;4.71;100.00
7109;BME280;29079;41.930;25.558;2023-03-03T07:29:00;99816.78;;;4.70;100.00
7109;BME280;29079;41.930;25.558;2023-03-03T07:31:34;99811.41;;;4.71;100.00
7109;BME280;29079;41.930;25.558;2023-03-03T07:34:14;99811.03;;;4.63;100.00
7109;BME280;29079;41.930;25.558;2023-03-03T07:36:52;99811.56;;;4.54;100.00
7109;BME280;29079;41.930;25.558;2023-03-03T07:39:35;99806.47;;;4.51;100.00
7109;BME280;29079;41.930;25.558;2023-03-03T07:42:14;99815.16;;;4.53;100.00
7109;BME280;29079;41.930;25.558;2023-03-03T07:44:50;99808.84;;;4.56;100.00
7109;BME280;29079;41.930;25.558;2023-03-03T07:47:25;99804.56;;;4.53;100.00
7109;BME280;29079;41.930;25.558;2023-03-03T07:50:00;99813.38;;;4.53;100.00
7109;BME280;29079;41.930;25.558;2023-03-03T07:52:40;99815.84;;;4.57;100.00
7109;BME280;29079;41.930;25.558;2023-03-03T07:55:19;99821.63;;;4.63;100.00
7109;BME280;29079;41.930;25.558;2023-03-03T07:57:54;99818.69;;;4.68;100.00
7109;BME280;29079;41.930;25.558;2023-03-03T08:03:21;99812.53;;;4.67;100.00
7109;BME280;29079;41.930;25.558;2023-03-03T08:05:56;99812.81;;;4.63;100.00
7109;BME280;29079;41.930;25.558;2023-03-03T08:08:33;99809.53;;;4.59;100.00
7109;BME280;29079;41.930;25.558;2023-03-03T08:11:07;99813.75;;;4.62;100.00
7109;BME280;29079;41.930;25.558;2023-03-03T08:13:41;99814.25;;;4.68;100.00
7109;BME280;29079;41.930;25.558;2023-03-03T08:16:28;99821.69;;;4.62;100.00
7109;BME280;29079;41.930;25.558;2023-03-03T08:19:02;99823.28;;;4.64;100.00
7109;BME280;29079;41.930;25.558;2023-03-03T08:21:38;99821.03;;;4.58;100.00
7109;BME280;29079;41.930;25.558;2023-03-03T08:24:11;99809.16;;;4.65;100.00
7109;BME280;29079;41.930;25.558;2023-03-03T08:26:44;99815.97;;;4.69;100.00
7109;BME280;29079;41.930;25.558;2023-03-03T08:29:17;99811.78;;;4.65;100.00
7109;BME280;29079;41.930;25.558;2023-03-03T08:31:50;99805.91;;;4.60;100.00
7109;BME280;29079;41.930;25.558;2023-03-03T08:34:23;99808.13;;;4.68;100.00
7109;BME280;29079;41.930;25.558;2023-03-03T08:36:58;99803.66;;;4.68;100.00
7109;BME280;29079;41.930;25.558;2023-03-03T08:39:31;99801.97;;;4.67;100.00
7109;BME280;29079;41.930;25.558;2023-03-03T08:42:04;99800.38;;;4.65;100.00
7109;BME280;29079;41.930;25.558;2023-03-03T08:44:37;99790.44;;;4.54;100.00
7109;BME280;29079;41.930;25.558;2023-03-03T08:47:11;99789.22;;;4.60;100.00
7109;BME280;29079;41.930;25.558;2023-03-03T08:49:47;99791.56;;;4.64;100.00
7109;BME280;29079;41.930;25.558;2023-03-03T08:52:22;99790.53;;;4.67;100.00
7109;BME280;29079;41.930;25.558;2023-03-03T08:54:55;99791.03;;;4.74;100.00
7109;BME280;29079;41.930;25.558;2023-03-03T08:57:29;99789.44;;;4.71;100.00
7109;BME280;29079;41.930;25.558;2023-03-03T09:00:02;99781.94;;;4.78;100.00
7109;BME280;29079;41.930;25.558;2023-03-03T09:02:35;99787.81;;;4.83;100.00
7109;BME280;29079;41.930;25.558;2023-03-03T09:05:09;99785.09;;;4.84;100.00
7109;BME280;29079;41.930;25.558;2023-03-03T09:07:44;99785.28;;;4.81;100.00
7109;BME280;29079;41.930;25.558;2023-03-03T09:10:19;99778.97;;;4.84;100.00
7109;BME280;29079;41.930;25.558;2023-03-03T09:13:01;99781.59;;;4.84;100.00
7109;BME280;29079;41.930;25.558;2023-03-03T09:15:37;99784.16;;;4.85;100.00
7109;BME280;29079;41.930;25.558;2023-03-03T09:18:14;99782.63;;;4.81;100.00
7109;BME280;29079;41.930;25.558;2023-03-03T09:20:48;99777.44;;;4.94;100.00
7109;BME280;29079;41.930;25.558;2023-03-03T09:23:34;99772.25;;;4.93;100.00
7109;BME280;29079;41.930;25.558;2023-03-03T09:26:20;99777.63;;;4.91;100.00
7109;BME280;29079;41.930;25.558;2023-03-03T09:28:54;99778.09;;;4.98;100.00
7109;BME280;29079;41.930;25.558;2023-03-03T09:31:30;99768.38;;;4.98;100.00
7109;BME280;29079;41.930;25.558;2023-03-03T09:34:15;99767.91;;;5.06;100.00
7109;BME280;29079;41.930;25.558;2023-03-03T09:36:51;99768.47;;;5.11;100.00
7109;BME280;29079;41.930;25.558;2023-03-03T09:39:26;99771.66;;;5.16;100.00
7109;BME280;29079;41.930;25.558;2023-03-03T09:48:01;99767.22;;;5.02;100.00
7109;BME280;29079;41.930;25.558;2023-03-03T09:50:40;99764.69;;;5.01;100.00
7109;BME280;29079;41.930;25.558;2023-03-03T09:53:24;99766.09;;;5.06;100.00
7109;BME280;29079;41.930;25.558;2023-03-03T09:56:06;99768.94;;;5.03;100.00
7109;BME280;29079;41.930;25.558;2023-03-03T09:58:51;99766.38;;;5.02;100.00
7109;BME280;29079;41.930;25.558;2023-03-03T10:01:41;99770.75;;;5.03;100.00
7109;BME280;29079;41.930;25.558;2023-03-03T10:04:31;99762.72;;;5.04;100.00
7109;BME280;29079;41.930;25.558;2023-03-03T10:07:15;99760.44;;;5.13;100.00
7109;BME280;29079;41.930;25.558;2023-03-03T10:09:56;99755.25;;;5.11;100.00
7109;BME280;29079;41.930;25.558;2023-03-03T10:12:38;99755.06;;;5.14;100.00
7109;BME280;29079;41.930;25.558;2023-03-03T10:15:18;99745.69;;;5.09;100.00
7109;BME280;29079;41.930;25.558;2023-03-03T10:17:55;99745.59;;;5.10;100.00
7109;BME280;29079;41.930;25.558;2023-03-03T10:20:36;99748.53;;;5.05;100.00
7109;BME280;29079;41.930;25.558;2023-03-03T10:23:23;99747.94;;;5.15;100.00
7109;BME280;29079;41.930;25.558;2023-03-03T10:26:05;99751.34;;;5.17;100.00
7109;BME280;29079;41.930;25.558;2023-03-03T10:31:33;99744.84;;;5.08;100.00
7109;BME280;29079;41.930;25.558;2023-03-03T10:34:14;99742.28;;;5.06;100.00
7109;BME280;29079;41.930;25.558;2023-03-03T10:36:53;99751.44;;;5.15;100.00
7109;BME280;29079;41.930;25.558;2023-03-03T10:39:40;99743.97;;;5.22;100.00
7109;BME280;29079;41.930;25.558;2023-03-03T10:42:25;99738.31;;;5.14;100.00
7109;BME280;29079;41.930;25.558;2023-03-03T10:45:09;99744.56;;;5.13;100.00
7109;BME280;29079;41.930;25.558;2023-03-03T10:47:53;99748.16;;;5.12;100.00
7109;BME280;29079;41.930;25.558;2023-03-03T10:50:32;99744.47;;;5.14;100.00
7109;BME280;29079;41.930;25.558;2023-03-03T10:53:15;99737.38;;;5.15;100.00
7109;BME280;29079;41.930;25.558;2023-03-03T10:56:00;99737.06;;;5.19;100.00
7109;BME280;29079;41.930;25.558;2023-03-03T10:58:41;99730.19;;;5.17;100.00
7109;BME280;29079;41.930;25.558;2023-03-03T11:01:20;99735.03;;;5.10;100.00
7109;BME280;29079;41.930;25.558;2023-03-03T11:04:00;99728.13;;;5.08;100.00
7109;BME280;29079;41.930;25.558;2023-03-03T11:06:40;99722.94;;;5.06;100.00
7109;BME280;29079;41.930;25.558;2023-03-03T11:09:18;99719.88;;;5.12;100.00
7109;BME280;29079;41.930;25.558;2023-03-03T11:12:00;99721.59;;;5.13;100.00
7109;BME280;29079;41.930;25.558;2023-03-03T11:14:38;99719.22;;;5.23;100.00
7109;BME280;29079;41.930;25.558;2023-03-03T11:17:19;99710.50;;;5.21;100.00
7109;BME280;29079;41.930;25.558;2023-03-03T11:20:02;99710.63;;;5.19;100.00
7109;BME280;29079;41.930;25.558;2023-03-03T11:22:39;99703.56;;;5.20;100.00
7109;BME280;29079;41.930;25.558;2023-03-03T11:25:19;99702.00;;;5.30;100.00
7109;BME280;29079;41.930;25.558;2023-03-03T11:28:06;99701.25;;;5.28;100.00
7109;BME280;29079;41.930;25.558;2023-03-03T11:30:47;99688.97;;;5.27;100.00
7109;BME280;29079;41.930;25.558;2023-03-03T11:33:25;99686.88;;;5.32;100.00
7109;BME280;29079;41.930;25.558;2023-03-03T11:36:06;99695.38;;;5.37;100.00
7109;BME280;29079;41.930;25.558;2023-03-03T11:38:44;99692.53;;;5.40;100.00
7109;BME280;29079;41.930;25.558;2023-03-03T11:41:25;99688.78;;;5.30;100.00
7109;BME280;29079;41.930;25.558;2023-03-03T11:44:07;99688.97;;;5.27;100.00
7109;BME280;29079;41.930;25.558;2023-03-03T11:46:43;99692.47;;;5.28;100.00
7109;BME280;29079;41.930;25.558;2023-03-03T11:49:19;99682.38;;;5.20;100.00
7109;BME280;29079;41.930;25.558;2023-03-03T11:51:58;99687.28;;;5.26;100.00
7109;BME280;29079;41.930;25.558;2023-03-03T11:54:36;99684.53;;;5.28;100.00
7109;BME280;29079;41.930;25.558;2023-03-03T11:57:15;99679.88;;;5.31;100.00
7109;BME280;29079;41.930;25.558;2023-03-03T11:59:54;99674.94;;;5.39;100.00
7109;BME280;29079;41.930;25.558;2023-03-03T12:02:35;99674.53;;;5.46;100.00
7109;BME280;29079;41.930;25.558;2023-03-03T12:05:17;99668.75;;;5.53;100.00
7109;BME280;29079;41.930;25.558;2023-03-03T12:08:01;99669.38;;;5.57;100.00
7109;BME280;29079;41.930;25.558;2023-03-03T12:10:38;99664.56;;;5.64;100.00
7109;BME280;29079;41.930;25.558;2023-03-03T12:13:17;99668.78;;;5.66;100.00
7109;BME280;29079;41.930;25.558;2023-03-03T12:15:54;99676.22;;;5.74;100.00
7109;BME280;29079;41.930;25.558;2023-03-03T12:18:34;99670.69;;;5.64;100.00
7109;BME280;29079;41.930;25.558;2023-03-03T12:21:17;99672.78;;;5.59;100.00
7109;BME280;29079;41.930;25.558;2023-03-03T12:24:02;99682.63;;;5.57;100.00
7109;BME280;29079;41.930;25.558;2023-03-03T12:26:40;99676.59;;;5.55;100.00
7109;BME280;29079;41.930;25.558;2023-03-03T12:29:24;99672.25;;;5.54;100.00
7109;BME280;29079;41.930;25.558;2023-03-03T12:32:01;99668.78;;;5.66;100.00
7109;BME280;29079;41.930;25.558;2023-03-03T12:34:37;99664.09;;;5.57;100.00
7109;BME280;29079;41.930;25.558;2023-03-03T12:37:19;99665.69;;;5.60;100.00
7109;BME280;29079;41.930;25.558;2023-03-03T12:39:59;99671.72;;;5.62;100.00
7109;BME280;29079;41.930;25.558;2023-03-03T12:42:38;99673.88;;;5.69;100.00
7109;BME280;29079;41.930;25.558;2023-03-03T12:45:17;99675.88;;;5.66;100.00
7109;BME280;29079;41.930;25.558;2023-03-03T12:47:58;99675.78;;;5.67;100.00
7109;BME280;29079;41.930;25.558;2023-03-03T12:50:34;99674.53;;;5.73;100.00
7109;BME280;29079;41.930;25.558;2023-03-03T12:53:12;99670.72;;;5.77;100.00
7109;BME280;29079;41.930;25.558;2023-03-03T12:55:52;99666.47;;;5.74;100.00
7109;BME280;29079;41.930;25.558;2023-03-03T12:58:31;99665.84;;;5.71;100.00
7109;BME280;29079;41.930;25.558;2023-03-03T13:01:12;99658.38;;;5.63;100.00
7109;BME280;29079;41.930;25.558;2023-03-03T13:03:49;99659.72;;;5.83;100.00
7109;BME280;29079;41.930;25.558;2023-03-03T13:06:27;99657.72;;;5.87;100.00
7109;BME280;29079;41.930;25.558;2023-03-03T13:09:05;99657.16;;;5.82;100.00
7109;BME280;29079;41.930;25.558;2023-03-03T13:14:47;99655.19;;;5.85;100.00
7109;BME280;29079;41.930;25.558;2023-03-03T13:17:25;99652.72;;;5.95;100.00
7109;BME280;29079;41.930;25.558;2023-03-03T13:20:00;99651.09;;;6.07;100.00
7109;BME280;29079;41.930;25.558;2023-03-03T13:22:36;99650.66;;;6.00;100.00
7109;BME280;29079;41.930;25.558;2023-03-03T13:25:19;99653.53;;;5.97;100.00
7109;BME280;29079;41.930;25.558;2023-03-03T13:27:57;99651.06;;;5.94;100.00
7109;BME280;29079;41.930;25.558;2023-03-03T13:30:34;99643.66;;;5.99;100.00
7109;BME280;29079;41.930;25.558;2023-03-03T13:33:13;99643.28;;;5.91;100.00
7109;BME280;29079;41.930;25.558;2023-03-03T13:35:52;99647.22;;;5.85;100.00
7109;BME280;29079;41.930;25.558;2023-03-03T13:38:27;99636.72;;;5.84;100.00
7109;BME280;29079;41.930;25.558;2023-03-03T13:41:03;99639.78;;;5.78;100.00
7109;BME280;29079;41.930;25.558;2023-03-03T13:43:39;99631.63;;;5.81;100.00
7109;BME280;29079;41.930;25.558;2023-03-03T13:46:20;99632.91;;;5.88;100.00
7109;BME280;29079;41.930;25.558;2023-03-03T13:49:02;99627.50;;;5.89;100.00
7109;BME280;29079;41.930;25.558;2023-03-03T13:51:41;99511.19;;;5.08;100.00
7109;BME280;29079;41.930;25.558;2023-03-03T13:54:20;99632.38;;;5.83;100.00
7109;BME280;29079;41.930;25.558;2023-03-03T13:57:08;99640.66;;;5.91;100.00
7109;BME280;29079;41.930;25.558;2023-03-03T13:59:45;99634.41;;;5.92;100.00
7109;BME280;29079;41.930;25.558;2023-03-03T14:02:28;99635.16;;;5.94;100.00